Time;durP1;ratioP1;P1;durP2;ratioP2;P2;SDS_P1;SDS_P2;PMS_P1;PMS_P2;Temp;Humidity;BMP_temperature;BMP_pressure;BME280_temperature;BME280_humidity;BME280_pressure;Samples;Min_cycle;Max_cycle;Signal;HPM_P1;HPM_P2
2021/10/16 00:01:00;;;;;;;11.13;4.17;;;10.70;99.90;;;;;;4895811;29;20207;-83
2021/10/16 00:03:26;;;;;;;7.53;3.23;;;10.70;99.90;;;;;;4887304;29;20235;-84
2021/10/16 00:05:55;;;;;;;9.67;4.17;;;10.70;99.90;;;;;;4875067;29;20207;-82
2021/10/16 00:08:22;;;;;;;10.90;3.13;;;10.70;99.90;;;;;;4877143;29;20636;-84
2021/10/16 00:10:49;;;;;;;10.20;3.50;;;10.70;99.90;;;;;;4876173;29;20235;-83
2021/10/16 00:13:15;;;;;;;6.63;3.30;;;10.70;99.90;;;;;;4876387;29;20215;-83
2021/10/16 00:15:42;;;;;;;11.27;3.70;;;10.70;99.90;;;;;;4876006;29;20473;-83
2021/10/16 00:18:10;;;;;;;8.93;3.30;;;10.70;99.90;;;;;;4875057;29;20815;-85
2021/10/16 00:20:37;;;;;;;6.90;3.33;;;10.70;99.90;;;;;;4875654;29;20268;-83
2021/10/16 00:23:05;;;;;;;7.80;3.47;;;10.70;99.90;;;;;;4874919;29;20226;-84
2021/10/16 00:25:32;;;;;;;8.13;3.77;;;10.70;99.90;;;;;;4878238;29;20223;-83
2021/10/16 00:27:59;;;;;;;6.40;3.47;;;10.70;99.90;;;;;;4892709;29;20218;-84
2021/10/16 00:30:25;;;;;;;5.37;2.90;;;10.70;99.90;;;;;;4895592;29;20215;-83
2021/10/16 00:32:52;;;;;;;8.23;3.23;;;10.70;99.90;;;;;;4895320;29;20208;-83
2021/10/16 00:35:20;;;;;;;7.47;3.57;;;10.70;99.90;;;;;;4892559;29;20219;-84
2021/10/16 00:37:47;;;;;;;5.80;2.73;;;10.70;99.90;;;;;;4894170;29;20407;-84
2021/10/16 00:40:15;;;;;;;6.90;3.00;;;10.70;99.90;;;;;;4894372;29;20211;-84
2021/10/16 00:42:47;;;;;;;7.13;3.10;;;10.70;99.90;;;;;;4894488;29;20203;-83
2021/10/16 00:45:14;;;;;;;10.53;3.73;;;10.70;99.90;;;;;;4878066;29;20236;-84
2021/10/16 00:47:41;;;;;;;5.33;2.87;;;10.70;99.90;;;;;;4876755;29;20212;-84
2021/10/16 00:50:09;;;;;;;7.47;2.87;;;10.70;99.90;;;;;;4876057;29;20279;-84
2021/10/16 00:52:37;;;;;;;5.77;2.97;;;10.70;99.90;;;;;;4876012;29;20207;-84
2021/10/16 00:55:06;;;;;;;9.87;3.43;;;10.60;99.90;;;;;;4876959;29;20614;-84
2021/10/16 00:57:34;;;;;;;9.23;3.00;;;10.60;99.90;;;;;;4876488;29;20207;-84
2021/10/16 01:00:02;;;;;;;7.03;2.70;;;10.60;99.90;;;;;;4876113;29;20208;-84
2021/10/16 01:02:29;;;;;;;8.53;3.17;;;10.60;99.90;;;;;;4887482;29;20620;-85
2021/10/16 01:04:56;;;;;;;5.30;3.40;;;10.50;99.90;;;;;;4894942;29;20223;-85
2021/10/16 01:07:23;;;;;;;5.87;2.83;;;10.50;99.90;;;;;;4889881;29;20207;-85
2021/10/16 01:09:50;;;;;;;6.47;3.10;;;10.50;99.90;;;;;;4876024;29;20219;-84
2021/10/16 01:12:18;;;;;;;4.93;2.63;;;10.40;99.90;;;;;;4876513;29;20207;-84
2021/10/16 01:14:50;;;;;;;4.93;2.73;;;10.40;99.90;;;;;;4876717;29;20489;-84
2021/10/16 01:17:19;;;;;;;6.13;3.20;;;10.30;99.90;;;;;;4876815;29;20208;-83
2021/10/16 01:19:48;;;;;;;5.60;2.77;;;10.30;99.90;;;;;;4876641;29;20247;-83
2021/10/16 01:22:17;;;;;;;4.73;2.33;;;10.20;99.90;;;;;;4876941;29;20208;-84
2021/10/16 01:24:44;;;;;;;8.10;3.30;;;10.10;99.90;;;;;;4875755;29;20227;-85
2021/10/16 01:27:13;;;;;;;7.60;3.90;;;10.10;99.90;;;;;;4875947;29;20208;-84
2021/10/16 01:29:40;;;;;;;7.93;3.70;;;10.00;99.90;;;;;;4877045;29;20612;-83
2021/10/16 01:32:07;;;;;;;5.10;3.27;;;10.00;99.90;;;;;;4894249;29;20202;-85
2021/10/16 01:34:34;;;;;;;6.33;3.30;;;9.90;99.90;;;;;;4896938;29;20199;-85
2021/10/16 01:37:00;;;;;;;7.07;3.40;;;9.90;99.90;;;;;;4895457;29;20303;-83
2021/10/16 01:39:29;;;;;;;8.97;3.20;;;9.90;99.90;;;;;;4878969;29;20216;-84
2021/10/16 01:41:56;;;;;;;9.20;3.47;;;9.90;99.90;;;;;;4877561;29;20920;-83
2021/10/16 01:44:23;;;;;;;5.80;3.20;;;9.90;99.90;;;;;;4878946;29;20227;-82
2021/10/16 01:46:50;;;;;;;5.50;2.93;;;9.90;99.90;;;;;;4878642;29;20494;-82
2021/10/16 01:49:18;;;;;;;6.10;3.13;;;9.90;99.90;;;;;;4877979;29;20223;-84
2021/10/16 01:51:47;;;;;;;7.20;3.30;;;9.90;99.90;;;;;;4879166;29;20786;-83
2021/10/16 01:54:14;;;;;;;10.57;3.30;;;10.00;99.90;;;;;;4878552;29;20228;-83
2021/10/16 01:56:42;;;;;;;7.30;3.20;;;10.00;99.90;;;;;;4878917;29;20208;-86
2021/10/16 01:59:13;;;;;;;7.67;3.43;;;10.00;99.90;;;;;;4878858;29;20219;-83
2021/10/16 02:01:40;;;;;;;8.57;3.77;;;10.00;99.90;;;;;;4877534;29;20218;-82
2021/10/16 02:04:07;;;;;;;5.77;2.73;;;10.00;99.90;;;;;;4877816;29;20847;-83
2021/10/16 02:06:35;;;;;;;6.83;3.47;;;10.00;99.90;;;;;;4878587;29;20204;-80
2021/10/16 02:09:02;;;;;;;8.20;2.77;;;10.00;99.90;;;;;;4880215;29;20208;-83
2021/10/16 02:11:29;;;;;;;7.70;3.37;;;10.00;99.90;;;;;;4879692;29;20210;-83
2021/10/16 02:13:57;;;;;;;6.30;3.30;;;10.00;99.90;;;;;;4880566;29;20204;-84
2021/10/16 02:16:24;;;;;;;7.37;3.03;;;10.10;99.90;;;;;;4897778;29;20208;-84
2021/10/16 02:18:51;;;;;;;4.63;2.97;;;10.10;99.90;;;;;;4895294;29;20215;-85
2021/10/16 02:21:18;;;;;;;5.70;2.77;;;10.10;99.90;;;;;;4878152;29;20244;-84
2021/10/16 02:23:45;;;;;;;4.43;2.60;;;10.10;99.90;;;;;;4878731;29;20204;-82
2021/10/16 02:26:11;;;;;;;6.67;3.07;;;10.10;99.90;;;;;;4871676;29;20208;-83
2021/10/16 02:28:38;;;;;;;5.93;3.20;;;10.10;99.90;;;;;;4878882;29;20219;-84
2021/10/16 02:31:06;;;;;;;6.27;3.20;;;10.10;99.90;;;;;;4879874;29;20216;-83
2021/10/16 02:33:33;;;;;;;7.53;3.60;;;10.10;99.90;;;;;;4879255;29;20208;-85
2021/10/16 02:36:01;;;;;;;4.97;3.07;;;10.10;99.90;;;;;;4878884;29;20208;-85
2021/10/16 02:38:28;;;;;;;6.93;2.97;;;10.10;99.90;;;;;;4879668;29;20208;-86
2021/10/16 02:40:55;;;;;;;4.97;2.90;;;10.10;99.90;;;;;;4879163;29;20204;-86
2021/10/16 02:43:22;;;;;;;5.10;2.93;;;10.10;99.90;;;;;;4897282;29;20234;-86
2021/10/16 02:45:49;;;;;;;6.93;3.10;;;10.20;99.90;;;;;;4896741;29;20230;-85
2021/10/16 02:48:17;;;;;;;5.13;2.70;;;10.20;99.90;;;;;;4882427;29;20208;-84
2021/10/16 02:50:44;;;;;;;4.60;2.80;;;10.20;99.90;;;;;;4877819;29;20204;-82
2021/10/16 02:53:10;;;;;;;6.53;3.20;;;10.20;99.90;;;;;;4878560;29;20231;-85
2021/10/16 02:55:38;;;;;;;6.67;2.60;;;10.20;99.90;;;;;;4878019;29;20220;-84
2021/10/16 02:58:04;;;;;;;4.40;2.70;;;10.20;99.90;;;;;;4879576;29;20207;-85
2021/10/16 03:00:31;;;;;;;8.47;3.07;;;10.20;99.90;;;;;;4879124;29;20212;-85
2021/10/16 03:02:58;;;;;;;7.67;4.00;;;10.10;99.90;;;;;;4877577;29;20295;-84
2021/10/16 03:05:26;;;;;;;4.80;2.77;;;10.10;99.90;;;;;;4876505;29;20231;-85
2021/10/16 03:07:53;;;;;;;6.80;2.80;;;10.10;99.90;;;;;;4877139;29;20208;-83
2021/10/16 03:10:20;;;;;;;5.07;2.80;;;10.00;99.90;;;;;;4877213;29;20510;-83
2021/10/16 03:12:47;;;;;;;5.57;2.90;;;10.00;99.90;;;;;;4877430;29;20231;-84
2021/10/16 03:15:14;;;;;;;5.70;2.93;;;10.00;99.90;;;;;;4881589;29;20219;-83
2021/10/16 03:17:40;;;;;;;3.50;2.13;;;9.90;99.90;;;;;;4896410;29;20218;-84
2021/10/16 03:20:08;;;;;;;4.90;2.70;;;9.90;99.90;;;;;;4895955;29;20254;-83
2021/10/16 03:22:37;;;;;;;3.87;2.37;;;9.80;99.90;;;;;;4896618;29;20219;-82
2021/10/16 03:25:04;;;;;;;5.90;3.07;;;9.80;99.90;;;;;;4895637;29;20231;-84
2021/10/16 03:27:31;;;;;;;4.13;2.50;;;9.70;99.90;;;;;;4895675;29;20679;-84
2021/10/16 03:29:58;;;;;;;3.60;2.27;;;9.60;99.90;;;;;;4894055;29;20823;-85
2021/10/16 03:32:24;;;;;;;5.37;2.87;;;9.60;99.90;;;;;;4895973;29;20590;-86
2021/10/16 03:34:51;;;;;;;3.93;2.23;;;9.60;99.90;;;;;;4896503;29;20604;-85
2021/10/16 03:37:18;;;;;;;4.93;2.57;;;9.50;99.90;;;;;;4895074;29;20564;-84
2021/10/16 03:39:46;;;;;;;3.53;2.17;;;9.50;99.90;;;;;;4896726;29;20222;-85
2021/10/16 03:42:13;;;;;;;4.97;2.60;;;9.50;99.90;;;;;;4882668;29;20789;-84
2021/10/16 03:44:40;;;;;;;4.83;2.30;;;9.50;99.90;;;;;;4878852;29;20228;-83
2021/10/16 03:47:06;;;;;;;4.83;2.47;;;9.40;99.90;;;;;;4895963;29;20219;-85
2021/10/16 03:49:33;;;;;;;3.87;2.60;;;9.40;99.90;;;;;;4896591;29;20214;-85
2021/10/16 03:52:00;;;;;;;5.10;3.23;;;9.30;99.90;;;;;;4895541;29;20211;-85
2021/10/16 03:54:27;;;;;;;3.57;2.57;;;9.30;99.90;;;;;;4877588;29;20242;-86
2021/10/16 03:56:55;;;;;;;7.40;2.97;;;9.30;99.90;;;;;;4877372;29;20211;-85
2021/10/16 03:59:23;;;;;;;4.93;2.67;;;9.20;99.90;;;;;;4877027;29;20214;-84
2021/10/16 04:01:50;;;;;;;5.23;2.60;;;9.20;99.90;;;;;;4878563;29;20562;-84
2021/10/16 04:04:17;;;;;;;6.47;2.60;;;9.10;99.90;;;;;;4895932;29;20207;-83
2021/10/16 04:06:44;;;;;;;5.50;3.00;;;9.10;99.90;;;;;;4896257;29;20211;-85
2021/10/16 04:09:10;;;;;;;6.70;3.23;;;9.10;99.90;;;;;;4895147;29;20216;-85
2021/10/16 04:11:37;;;;;;;5.47;3.00;;;9.00;99.90;;;;;;4895391;29;20199;-84
2021/10/16 04:14:05;;;;;;;7.43;3.17;;;9.00;99.90;;;;;;4895023;29;20215;-84
2021/10/16 04:16:32;;;;;;;6.43;3.13;;;9.00;99.90;;;;;;4894352;29;20222;-86
2021/10/16 04:18:59;;;;;;;3.30;2.50;;;9.00;99.90;;;;;;4894227;29;20218;-83
2021/10/16 04:21:26;;;;;;;5.13;2.93;;;9.00;99.90;;;;;;4895151;29;20275;-82
2021/10/16 04:23:52;;;;;;;4.37;2.87;;;9.00;99.90;;;;;;4895812;29;20210;-82
2021/10/16 04:26:19;;;;;;;7.83;3.27;;;9.00;99.90;;;;;;4877320;29;20238;-85
2021/10/16 04:28:46;;;;;;;5.53;3.07;;;9.10;99.90;;;;;;4877274;29;20586;-85
2021/10/16 04:31:15;;;;;;;6.57;3.07;;;9.00;99.90;;;;;;4877090;29;20196;-83
2021/10/16 04:33:41;;;;;;;9.30;3.57;;;9.10;99.90;;;;;;4876105;29;20220;-83
2021/10/16 04:36:08;;;;;;;7.07;3.27;;;9.10;99.90;;;;;;4875021;29;20482;-84
2021/10/16 04:38:35;;;;;;;8.07;3.00;;;9.10;99.90;;;;;;4873851;29;20212;-82
2021/10/16 04:41:03;;;;;;;7.50;3.20;;;9.10;99.90;;;;;;4875290;29;20227;-84
2021/10/16 04:43:31;;;;;;;7.40;2.70;;;9.10;99.90;;;;;;4876763;29;20527;-83
2021/10/16 04:45:58;;;;;;;14.43;3.50;;;9.10;99.90;;;;;;4876164;29;20228;-84
2021/10/16 04:48:26;;;;;;;6.80;2.73;;;9.10;99.90;;;;;;4875710;29;20208;-83
2021/10/16 04:50:53;;;;;;;4.70;2.10;;;9.10;99.90;;;;;;4876571;29;20222;-85
2021/10/16 04:53:20;;;;;;;6.10;2.40;;;9.10;99.90;;;;;;4875443;29;20322;-84
2021/10/16 04:55:49;;;;;;;7.30;3.00;;;9.20;99.90;;;;;;4873578;29;20216;-84
2021/10/16 04:58:17;;;;;;;5.33;2.50;;;9.20;99.90;;;;;;4874044;29;20230;-85
2021/10/16 05:00:44;;;;;;;6.53;2.23;;;9.20;99.90;;;;;;4874552;29;20613;-83
2021/10/16 05:03:12;;;;;;;8.70;2.80;;;9.20;99.90;;;;;;4874280;29;20212;-83
2021/10/16 05:05:40;;;;;;;8.70;2.70;;;9.20;99.90;;;;;;4894337;29;20227;-83
2021/10/16 05:08:07;;;;;;;7.87;2.67;;;9.20;99.90;;;;;;4892978;29;20212;-83
2021/10/16 05:10:34;;;;;;;5.60;2.67;;;9.20;99.90;;;;;;4879840;29;20288;-83
2021/10/16 05:13:01;;;;;;;6.70;2.57;;;9.20;99.90;;;;;;4877661;29;20211;-84
2021/10/16 05:15:27;;;;;;;5.63;2.50;;;9.30;99.90;;;;;;4877787;29;20211;-83
2021/10/16 05:17:54;;;;;;;6.30;2.60;;;9.30;99.90;;;;;;4877108;29;20574;-83
2021/10/16 05:20:22;;;;;;;5.53;2.50;;;9.30;99.90;;;;;;4879311;29;20258;-82
2021/10/16 05:22:50;;;;;;;6.90;2.60;;;9.30;99.90;;;;;;4897881;29;20206;-84
2021/10/16 05:25:17;;;;;;;8.60;2.77;;;9.30;99.90;;;;;;4897747;29;20242;-83
2021/10/16 05:27:44;;;;;;;9.83;3.50;;;9.40;99.90;;;;;;4897843;29;20219;-84
2021/10/16 05:30:12;;;;;;;7.03;3.57;;;9.40;99.90;;;;;;4893285;29;20219;-84
2021/10/16 05:32:39;;;;;;;11.27;5.17;;;9.40;99.90;;;;;;4879467;29;20518;-84
2021/10/16 05:35:06;;;;;;;11.23;4.60;;;9.40;99.90;;;;;;4881422;29;20527;-84
2021/10/16 05:37:33;;;;;;;10.77;4.17;;;9.50;99.90;;;;;;4897965;29;20199;-83
2021/10/16 05:40:01;;;;;;;10.97;4.27;;;9.50;99.90;;;;;;4880440;29;20212;-84
2021/10/16 05:42:28;;;;;;;10.53;4.77;;;9.50;99.90;;;;;;4879922;29;20215;-83
2021/10/16 05:44:55;;;;;;;8.87;4.40;;;9.50;99.90;;;;;;4878818;29;20243;-84
2021/10/16 05:47:22;;;;;;;10.30;4.90;;;9.60;99.90;;;;;;4880213;29;20216;-84
2021/10/16 05:49:49;;;;;;;7.67;4.30;;;9.60;99.90;;;;;;4879254;29;20212;-84
2021/10/16 05:52:15;;;;;;;9.70;4.80;;;9.60;99.90;;;;;;4880318;29;20529;-84
2021/10/16 05:54:42;;;;;;;12.93;4.87;;;9.60;99.90;;;;;;4879855;29;20684;-84
2021/10/16 05:57:10;;;;;;;9.83;5.37;;;9.60;99.90;;;;;;4883900;29;20509;-84
2021/10/16 05:59:38;;;;;;;7.07;4.13;;;9.60;99.90;;;;;;4898764;29;20203;-83
2021/10/16 06:02:05;;;;;;;8.93;4.43;;;9.60;99.90;;;;;;4898148;29;20211;-84
2021/10/16 06:04:31;;;;;;;9.37;4.40;;;9.60;99.90;;;;;;4898066;29;20210;-84
2021/10/16 06:06:58;;;;;;;8.33;4.47;;;9.70;99.90;;;;;;4896251;29;20243;-85
2021/10/16 06:09:25;;;;;;;6.10;3.50;;;9.70;99.90;;;;;;4883713;29;20211;-84
2021/10/16 06:11:52;;;;;;;6.07;3.67;;;9.70;99.90;;;;;;4877998;29;20279;-83
2021/10/16 06:14:20;;;;;;;8.00;3.73;;;9.70;99.90;;;;;;4878221;29;20207;-84
2021/10/16 06:16:47;;;;;;;8.87;4.13;;;9.70;99.90;;;;;;4878570;29;20264;-83
2021/10/16 06:19:14;;;;;;;7.67;3.87;;;9.70;99.90;;;;;;4877847;29;20218;-83
2021/10/16 06:21:41;;;;;;;13.40;4.00;;;9.70;99.90;;;;;;4878471;29;20235;-85
2021/10/16 06:24:07;;;;;;;7.80;3.37;;;9.70;99.90;;;;;;4877597;29;20218;-84
2021/10/16 06:26:34;;;;;;;6.20;3.17;;;9.80;99.90;;;;;;4877844;29;20224;-85
2021/10/16 06:29:01;;;;;;;8.70;3.37;;;9.80;99.90;;;;;;4879078;29;20505;-85
2021/10/16 06:31:29;;;;;;;7.30;2.90;;;9.80;99.90;;;;;;4879299;29;20220;-86
2021/10/16 06:33:56;;;;;;;4.33;2.63;;;9.80;99.90;;;;;;4878865;29;20246;-85
2021/10/16 06:36:23;;;;;;;7.63;3.77;;;9.80;99.90;;;;;;4879787;29;20223;-85
2021/10/16 06:38:50;;;;;;;6.00;2.97;;;9.80;99.90;;;;;;4879289;29;20211;-84
2021/10/16 06:41:17;;;;;;;7.50;2.77;;;9.80;99.90;;;;;;4878634;29;20555;-85
2021/10/16 06:43:44;;;;;;;8.17;3.17;;;9.80;99.90;;;;;;4879434;29;20250;-83
2021/10/16 06:46:11;;;;;;;6.20;2.80;;;9.80;99.90;;;;;;4882676;29;20227;-85
2021/10/16 06:48:39;;;;;;;6.60;2.97;;;9.80;99.90;;;;;;4897648;29;20208;-85
2021/10/16 06:51:06;;;;;;;6.27;3.03;;;9.90;99.90;;;;;;4897146;29;20211;-83
2021/10/16 06:53:33;;;;;;;7.03;2.97;;;9.90;99.90;;;;;;4881839;29;20240;-84
2021/10/16 06:56:00;;;;;;;10.80;3.70;;;9.90;99.90;;;;;;4877953;29;20227;-83
2021/10/16 06:58:27;;;;;;;10.87;3.27;;;9.90;99.90;;;;;;4878841;29;20620;-82
2021/10/16 07:00:53;;;;;;;10.37;3.27;;;9.90;99.90;;;;;;4878497;29;20211;-86
2021/10/16 07:03:20;;;;;;;7.47;3.20;;;9.90;99.90;;;;;;4877521;29;20669;-83
2021/10/16 07:05:49;;;;;;;6.10;3.40;;;10.00;99.90;;;;;;4877311;29;20231;-85
2021/10/16 07:08:19;;;;;;;11.90;4.10;;;10.00;99.90;;;;;;4878386;29;20850;-85
2021/10/16 07:10:46;;;;;;;9.23;4.27;;;10.00;99.90;;;;;;4896502;29;20289;-85
2021/10/16 07:13:13;;;;;;;8.03;3.57;;;10.10;99.90;;;;;;4896855;29;20218;-85
2021/10/16 07:15:39;;;;;;;11.03;4.17;;;10.10;99.90;;;;;;4897377;29;20660;-85
2021/10/16 07:18:08;;;;;;;10.13;4.27;;;10.10;99.90;;;;;;4878849;29;20211;-86
2021/10/16 07:20:34;;;;;;;9.93;3.70;;;10.10;99.90;;;;;;4884617;29;20251;-86
2021/10/16 07:23:03;;;;;;;10.77;4.40;;;10.20;99.90;;;;;;4878226;29;20214;-86
2021/10/16 07:25:30;;;;;;;9.67;4.37;;;10.20;99.90;;;;;;4878808;29;20224;-86
2021/10/16 07:27:56;;;;;;;12.90;4.20;;;10.20;99.90;;;;;;4897228;29;20304;-86
2021/10/16 07:30:23;;;;;;;9.57;4.00;;;10.20;99.90;;;;;;4896537;29;20215;-87
2021/10/16 07:32:50;;;;;;;13.63;3.90;;;10.20;99.90;;;;;;4893371;29;20215;-86
2021/10/16 07:35:17;;;;;;;11.60;4.30;;;10.20;99.90;;;;;;4890179;29;20205;-87
2021/10/16 07:37:44;;;;;;;11.30;4.27;;;10.30;99.90;;;;;;4897915;29;20605;-86
2021/10/16 07:40:13;;;;;;;8.23;3.30;;;10.30;99.90;;;;;;4892950;29;20217;-87
2021/10/16 07:42:40;;;;;;;8.23;3.20;;;10.30;99.90;;;;;;4890133;29;20222;-86
2021/10/16 07:45:07;;;;;;;8.60;4.33;;;10.30;99.90;;;;;;4878413;29;20211;-86
2021/10/16 07:47:34;;;;;;;12.07;4.13;;;10.40;99.90;;;;;;4878195;29;20251;-84
2021/10/16 07:50:00;;;;;;;11.87;4.03;;;10.40;99.90;;;;;;4894596;29;20219;-85
2021/10/16 07:52:27;;;;;;;11.57;4.37;;;10.40;99.90;;;;;;4894640;29;20223;-86
2021/10/16 07:54:54;;;;;;;14.23;5.00;;;10.40;99.90;;;;;;4880883;29;20244;-83
2021/10/16 07:57:22;;;;;;;8.97;3.83;;;10.50;99.90;;;;;;4878013;29;20219;-87
2021/10/16 07:59:49;;;;;;;8.77;4.30;;;10.50;99.90;;;;;;4878326;29;20263;-86
2021/10/16 08:02:16;;;;;;;8.33;4.03;;;10.60;99.90;;;;;;4878855;29;20240;-87
2021/10/16 08:04:43;;;;;;;8.97;4.27;;;10.60;99.90;;;;;;4877537;29;20212;-86
2021/10/16 08:07:09;;;;;;;9.13;4.53;;;10.60;99.90;;;;;;4878239;29;20447;-86
2021/10/16 08:09:36;;;;;;;7.37;4.30;;;10.70;99.90;;;;;;4877541;29;20528;-88
2021/10/16 08:12:03;;;;;;;7.87;4.30;;;10.70;99.90;;;;;;4879458;29;20215;-88
2021/10/16 08:14:32;;;;;;;12.37;5.87;;;10.70;99.90;;;;;;4877183;29;20216;-87
2021/10/16 08:16:58;;;;;;;15.63;5.03;;;10.80;99.90;;;;;;4877759;29;20204;-86
2021/10/16 08:19:25;;;;;;;8.03;3.70;;;10.80;99.90;;;;;;4877527;29;20207;-87
2021/10/16 08:21:52;;;;;;;11.40;4.33;;;10.80;99.90;;;;;;4877817;29;20200;-87
2021/10/16 08:24:19;;;;;;;10.20;4.97;;;10.90;99.90;;;;;;4878273;29;20224;-86
2021/10/16 08:26:46;;;;;;;12.83;4.47;;;10.90;99.90;;;;;;4877852;29;20234;-84
2021/10/16 08:29:13;;;;;;;10.10;5.40;;;11.00;99.90;;;;;;4876675;29;20204;-86
2021/10/16 08:31:42;;;;;;;10.87;4.50;;;11.00;99.90;;;;;;4877002;29;20222;-83
2021/10/16 08:34:09;;;;;;;12.70;5.00;;;11.10;99.90;;;;;;4883696;29;20215;-84
2021/10/16 08:36:35;;;;;;;7.80;4.07;;;11.10;99.90;;;;;;4895849;29;20211;-85
2021/10/16 08:39:03;;;;;;;7.40;3.33;;;11.20;99.90;;;;;;4895792;29;20577;-86
2021/10/16 08:41:30;;;;;;;10.23;3.60;;;11.30;99.90;;;;;;4896232;29;20199;-87
2021/10/16 08:43:56;;;;;;;7.20;3.00;;;11.40;99.90;;;;;;4895997;29;20211;-87
2021/10/16 08:46:25;;;;;;;6.70;2.70;;;11.50;99.90;;;;;;4896385;29;20226;-89
2021/10/16 08:48:55;;;;;;;4.97;2.20;;;11.50;99.90;;;;;;4895967;29;20215;-86
2021/10/16 08:51:22;;;;;;;3.97;2.20;;;11.60;99.90;;;;;;4896899;29;20207;-86
2021/10/16 08:53:49;;;;;;;4.57;2.23;;;11.70;99.90;;;;;;4889651;29;20235;-88
2021/10/16 08:56:16;;;;;;;6.10;2.30;;;11.80;99.90;;;;;;4877846;29;20207;-88
2021/10/16 08:58:43;;;;;;;9.53;2.73;;;11.80;99.90;;;;;;4877996;29;20613;-88
2021/10/16 09:01:10;;;;;;;10.13;2.23;;;11.90;99.90;;;;;;4890465;29;20219;-88
2021/10/16 09:03:40;;;;;;;4.67;1.60;;;12.00;99.90;;;;;;4896668;29;20207;-87
2021/10/16 09:06:11;;;;;;;5.40;2.00;;;12.00;99.90;;;;;;4895034;29;20231;-86
2021/10/16 09:08:44;;;;;;;5.03;2.13;;;12.10;99.90;;;;;;4891848;29;20211;-86
2021/10/16 09:11:26;;;;;;;7.90;3.07;;;12.20;99.90;;;;;;4873371;29;20212;-87
2021/10/16 09:13:59;;;;;;;5.20;1.60;;;12.30;99.90;;;;;;4874959;29;20204;-86
2021/10/16 09:16:29;;;;;;;8.73;2.60;;;12.30;99.90;;;;;;4890145;29;20223;-87
2021/10/16 09:19:08;;;;;;;6.17;2.33;;;12.40;99.90;;;;;;4893874;29;20206;-85
2021/10/16 09:21:38;;;;;;;7.33;2.50;;;12.40;99.90;;;;;;4895280;29;20242;-85
2021/10/16 09:24:20;;;;;;;4.30;1.90;;;12.50;99.90;;;;;;4878099;29;20224;-86
2021/10/16 09:26:50;;;;;;;6.00;2.23;;;12.50;99.90;;;;;;4878426;29;20220;-85
2021/10/16 09:29:19;;;;;;;9.70;2.50;;;12.60;99.90;;;;;;4877273;29;20220;-86
2021/10/16 09:31:48;;;;;;;7.13;2.40;;;12.60;99.90;;;;;;4877637;29;20216;-85
2021/10/16 09:34:23;;;;;;;5.83;2.00;;;12.60;99.90;;;;;;4877170;29;20214;-86
2021/10/16 09:36:52;;;;;;;4.13;1.63;;;12.60;99.90;;;;;;4876738;29;20196;-86
2021/10/16 09:39:20;;;;;;;8.23;2.30;;;12.70;99.90;;;;;;4884471;29;20226;-86
2021/10/16 09:41:48;;;;;;;7.40;2.33;;;12.70;99.90;;;;;;4895687;29;20206;-85
2021/10/16 09:44:26;;;;;;;6.87;2.33;;;12.70;99.90;;;;;;4891347;29;20212;-85
2021/10/16 09:46:57;;;;;;;10.50;2.23;;;12.80;99.90;;;;;;4909618;29;20219;-86
2021/10/16 09:49:31;;;;;;;9.37;2.20;;;12.80;99.90;;;;;;4908246;29;20736;-84
2021/10/16 09:52:00;;;;;;;6.07;1.90;;;12.80;99.90;;;;;;4913765;29;20205;-86
2021/10/16 09:54:30;;;;;;;8.03;2.70;;;12.80;99.90;;;;;;4916267;29;20236;-85
2021/10/16 09:56:58;;;;;;;9.67;2.20;;;12.80;99.90;;;;;;4903439;29;20259;-86
2021/10/16 09:59:26;;;;;;;7.00;1.80;;;12.90;99.90;;;;;;4883651;29;20243;-84
2021/10/16 10:01:54;;;;;;;6.90;2.00;;;12.90;99.90;;;;;;4879487;29;20330;-86
2021/10/16 10:04:24;;;;;;;8.13;2.00;;;12.90;99.90;;;;;;4880647;29;20215;-86
2021/10/16 10:06:52;;;;;;;6.67;2.30;;;12.90;99.90;;;;;;4880098;29;20233;-86
2021/10/16 10:09:21;;;;;;;4.03;1.80;;;12.90;99.90;;;;;;4880207;29;21118;-86
2021/10/16 10:11:52;;;;;;;8.13;2.27;;;12.90;99.90;;;;;;4880277;29;20216;-86
2021/10/16 10:14:20;;;;;;;8.03;2.30;;;13.00;99.90;;;;;;4895642;29;20230;-86
2021/10/16 10:16:48;;;;;;;10.20;2.60;;;13.00;99.90;;;;;;4896915;29;20612;-84
2021/10/16 10:19:16;;;;;;;7.33;2.17;;;13.00;99.90;;;;;;4890852;29;20212;-84
2021/10/16 10:21:44;;;;;;;6.53;2.00;;;13.00;99.90;;;;;;4879265;29;20240;-84
2021/10/16 10:24:13;;;;;;;8.20;2.23;;;13.10;99.90;;;;;;4892537;29;20207;-85
2021/10/16 10:26:42;;;;;;;7.73;2.40;;;13.30;99.90;;;;;;4898423;29;20262;-86
2021/10/16 10:29:12;;;;;;;9.33;2.60;;;13.30;99.90;;;;;;4898258;29;20212;-87
2021/10/16 10:31:59;;;;;;;7.93;1.90;;;13.40;99.90;;;;;;4898569;29;20200;-85
2021/10/16 10:34:37;;;;;;;7.63;1.90;;;13.40;99.90;;;;;;4879114;29;20272;-87
2021/10/16 10:37:09;;;;;;;10.97;2.70;;;13.50;99.90;;;;;;4879477;29;20206;-85
2021/10/16 10:39:53;;;;;;;6.73;2.10;;;13.50;99.90;;;;;;4879438;29;20223;-86
2021/10/16 10:42:49;;;;;;;5.90;1.83;;;13.50;99.90;;;;;;4895458;29;20518;-86
2021/10/16 10:45:40;;;;;;;9.07;2.20;;;13.50;99.90;;;;;;4895763;29;20208;-86
2021/10/16 10:48:09;;;;;;;6.13;1.80;;;13.60;99.90;;;;;;4896347;29;20274;-84
2021/10/16 10:51:08;;;;;;;2.57;1.27;;;13.60;99.90;;;;;;4878963;29;20203;-83
2021/10/16 10:53:41;;;;;;;7.93;2.20;;;13.60;99.90;;;;;;4879546;29;20436;-85
2021/10/16 10:56:24;;;;;;;9.57;2.30;;;13.70;99.90;;;;;;4878693;29;20560;-83
2021/10/16 10:59:03;;;;;;;6.23;1.63;;;13.80;99.90;;;;;;4879508;29;20228;-86
2021/10/16 11:01:57;;;;;;;3.63;1.83;;;14.00;99.90;;;;;;4886527;29;20302;-85
2021/10/16 11:04:44;;;;;;;6.30;2.10;;;14.20;99.90;;;;;;4895840;29;20211;-84
2021/10/16 11:07:13;;;;;;;10.17;2.20;;;14.30;99.90;;;;;;4878085;29;20236;-83
2021/10/16 11:09:41;;;;;;;3.72;1.30;;;14.40;99.90;;;;;;4879330;29;20523;-85
2021/10/16 11:12:09;;;;;;;3.60;1.40;;;14.50;99.90;;;;;;4878070;29;20620;-85
2021/10/16 11:14:39;;;;;;;6.27;1.53;;;14.60;99.90;;;;;;4878111;29;20559;-85
2021/10/16 11:17:08;;;;;;;4.40;1.48;;;14.80;99.90;;;;;;4877089;29;20208;-85
2021/10/16 11:19:52;;;;;;;3.65;1.40;;;15.00;99.90;;;;;;4878037;29;20204;-83
2021/10/16 11:22:20;;;;;;;4.90;1.35;;;15.10;99.90;;;;;;4877697;29;20208;-85
2021/10/16 11:24:47;;;;;;;3.45;1.67;;;15.20;99.90;;;;;;4878040;29;20514;-85
2021/10/16 11:27:21;;;;;;;4.03;1.58;;;15.20;99.90;;;;;;4877890;29;20232;-86
2021/10/16 11:29:50;;;;;;;3.47;1.58;;;15.30;99.90;;;;;;4877261;29;20298;-86
2021/10/16 11:32:19;;;;;;;3.33;1.00;;;15.30;99.90;;;;;;4877902;29;20212;-83
2021/10/16 11:35:00;;;;;;;4.57;1.50;;;15.30;99.90;;;;;;4877465;29;20208;-83
2021/10/16 11:37:47;;;;;;;5.45;2.13;;;15.30;99.90;;;;;;4877546;29;20196;-84
2021/10/16 11:40:16;;;;;;;2.97;1.52;;;15.30;99.90;;;;;;4876829;29;20219;-84
2021/10/16 11:42:48;;;;;;;4.72;1.73;;;15.40;99.90;;;;;;4876313;29;20268;-83
2021/10/16 11:45:19;;;;;;;4.70;1.42;;;15.60;99.90;;;;;;4875732;29;20211;-85
2021/10/16 11:47:50;;;;;;;3.63;1.15;;;15.70;99.90;;;;;;4885622;29;20585;-86
2021/10/16 11:50:18;;;;;;;3.60;1.23;;;15.80;99.90;;;;;;4894721;29;20212;-84
2021/10/16 11:52:47;;;;;;;5.60;1.35;;;15.90;99.90;;;;;;4895872;29;20203;-86
2021/10/16 11:55:18;;;;;;;4.53;1.17;;;16.00;99.90;;;;;;4895247;29;20207;-85
2021/10/16 11:57:45;;;;;;;5.22;1.42;;;16.00;99.90;;;;;;4879052;29;20223;-86
2021/10/16 12:00:18;;;;;;;6.03;1.80;;;16.10;99.90;;;;;;4874698;29;20215;-84
2021/10/16 12:02:45;;;;;;;4.95;1.65;;;16.20;99.90;;;;;;4875776;29;20212;-84
2021/10/16 12:05:13;;;;;;;4.75;1.50;;;16.20;99.90;;;;;;4874840;29;20212;-84
2021/10/16 12:07:40;;;;;;;6.38;1.65;;;16.20;99.90;;;;;;4875165;29;20258;-82
2021/10/16 12:10:33;;;;;;;5.53;1.48;;;16.20;99.90;;;;;;4874745;29;20215;-83
2021/10/16 12:13:06;;;;;;;4.18;1.33;;;16.20;99.90;;;;;;4875094;29;20295;-84
2021/10/16 12:15:43;;;;;;;7.40;1.70;;;16.20;99.90;;;;;;4875161;29;20211;-85
2021/10/16 12:18:18;;;;;;;3.53;1.45;;;16.20;99.90;;;;;;4873011;29;20511;-83
2021/10/16 12:20:48;;;;;;;6.47;1.60;;;16.20;99.90;;;;;;4874639;29;20238;-83
2021/10/16 12:23:15;;;;;;;6.45;1.55;;;16.20;99.90;;;;;;4875902;29;20381;-86
2021/10/16 12:25:44;;;;;;;5.93;1.90;;;16.20;99.90;;;;;;4877834;29;20227;-82
2021/10/16 12:28:11;;;;;;;5.03;2.08;;;16.10;99.90;;;;;;4894337;29;20263;-83
2021/10/16 12:30:57;;;;;;;7.53;1.90;;;16.20;99.90;;;;;;4886585;29;20211;-83
2021/10/16 12:33:24;;;;;;;7.07;1.73;;;16.20;99.90;;;;;;4875397;29;20503;-84
2021/10/16 12:35:57;;;;;;;5.32;1.50;;;16.10;99.90;;;;;;4875436;29;20234;-82
2021/10/16 12:38:25;;;;;;;4.65;1.35;;;16.00;99.90;;;;;;4876099;29;20211;-85
2021/10/16 12:40:53;;;;;;;8.75;1.90;;;16.10;99.90;;;;;;4874076;29;20238;-84
2021/10/16 12:43:28;;;;;;;5.10;1.77;;;16.10;99.90;;;;;;4876590;29;20210;-82
2021/10/16 12:45:56;;;;;;;6.45;1.60;;;16.10;99.90;;;;;;4874330;29;20306;-83
2021/10/16 12:48:31;;;;;;;9.50;2.15;;;16.10;99.90;;;;;;4889801;29;20231;-84
2021/10/16 12:51:00;;;;;;;4.07;1.83;;;16.00;99.90;;;;;;4893334;29;20331;-83
2021/10/16 12:53:30;;;;;;;8.75;1.67;;;16.00;99.90;;;;;;4905428;29;20246;-83
2021/10/16 12:56:13;;;;;;;8.75;2.83;;;15.90;99.90;;;;;;4909921;29;20250;-83